createdAt,value
2018-04-23T00:02:16.631Z,124308.59
2018-04-23T00:04:44.101Z,124308.59
2018-04-23T00:07:11.624Z,124308.59
2018-04-23T00:09:39.090Z,124308.59
2018-04-23T00:12:06.581Z,124308.59
2018-04-23T00:14:34.046Z,99793.66
2018-04-23T00:17:01.545Z,99794.91
2018-04-23T00:19:29.004Z,99791.26
2018-04-23T00:21:56.483Z,99786.20
2018-04-23T00:24:23.948Z,99775.14
2018-04-23T00:26:51.431Z,99766.45
2018-04-23T00:29:18.885Z,99764.16
2018-04-23T00:31:46.425Z,99755.71
2018-04-23T00:34:13.885Z,99759.08
2018-04-23T00:36:41.366Z,99765.25
2018-04-23T00:39:08.825Z,99770.75
2018-04-23T00:41:36.302Z,99764.03
2018-04-23T00:44:03.753Z,99774.84
2018-04-23T00:46:31.230Z,99777.47
2018-04-23T00:48:58.700Z,99777.65
2018-04-23T00:51:26.182Z,99774.95
2018-04-23T00:53:53.654Z,99777.17
2018-04-23T00:56:21.134Z,99773.61
2018-04-23T00:58:48.598Z,99790.19
2018-04-23T01:01:16.074Z,99786.39
2018-04-23T01:03:43.541Z,99781.74
2018-04-23T01:06:11.022Z,99780.27
2018-04-23T01:08:38.492Z,99785.15
2018-04-23T01:11:05.969Z,99793.31
2018-04-23T01:13:33.430Z,99791.00
2018-04-23T01:16:00.901Z,99795.27
2018-04-23T01:18:28.385Z,99794.82
2018-04-23T01:20:55.885Z,99793.94
2018-04-23T01:23:23.370Z,99801.25
2018-04-23T01:25:50.834Z,99809.44
2018-04-23T01:28:18.314Z,99804.45
2018-04-23T01:30:45.765Z,99809.87
2018-04-23T01:33:13.243Z,99809.30
2018-04-23T01:35:40.710Z,99813.30
2018-04-23T01:38:08.185Z,99819.63
2018-04-23T01:40:35.645Z,99819.86
2018-04-23T01:43:03.130Z,99838.12
2018-04-23T01:45:30.582Z,99846.91
2018-04-23T01:47:58.060Z,99850.91
2018-04-23T01:50:25.522Z,99857.38
2018-04-23T01:52:53.012Z,99847.63
2018-04-23T01:55:20.470Z,99847.63
2018-04-23T01:57:47.954Z,99854.95
2018-04-23T02:00:15.409Z,99851.46
2018-04-23T02:02:42.891Z,99838.27
2018-04-23T02:05:10.345Z,99835.12
2018-04-23T02:07:37.818Z,99838.63
2018-04-23T02:10:05.274Z,99828.63
2018-04-23T02:12:32.749Z,99827.15
2018-04-23T02:15:00.201Z,99821.98
2018-04-23T02:17:27.682Z,99817.92
2018-04-23T02:19:56.070Z,99831.22
2018-04-23T02:22:23.550Z,99831.12
2018-04-23T02:24:51.018Z,99832.38
2018-04-23T02:27:18.502Z,99839.42
2018-04-23T02:29:46.031Z,99840.52
2018-04-23T02:32:13.519Z,99839.31
2018-04-23T02:34:40.974Z,99844.30
2018-04-23T02:37:08.460Z,99845.05
2018-04-23T02:39:35.917Z,99856.03
2018-04-23T02:42:03.376Z,99867.58
2018-04-23T02:44:30.865Z,99864.53
2018-04-23T02:46:58.321Z,99861.89
2018-04-23T02:49:25.804Z,99862.00
2018-04-23T02:51:53.270Z,99861.55
2018-04-23T02:54:20.749Z,99872.19
2018-04-23T02:56:48.211Z,99865.52
2018-04-23T02:59:15.690Z,99859.02
2018-04-23T03:01:43.145Z,99865.28
2018-04-23T03:04:10.626Z,99877.73
2018-04-23T03:06:38.094Z,99875.85
2018-04-23T03:09:05.569Z,99874.45
2018-04-23T03:11:33.029Z,99866.66
2018-04-23T03:14:00.519Z,99862.95
2018-04-23T03:16:27.986Z,99855.44
2018-04-23T03:18:55.465Z,99858.81
2018-04-23T03:21:22.916Z,99855.87
2018-04-23T03:23:50.394Z,99865.91
2018-04-23T03:26:17.861Z,99876.67
2018-04-23T03:28:45.341Z,99870.17
2018-04-23T03:31:12.802Z,99880.26
2018-04-23T03:33:40.273Z,99869.38
2018-04-23T03:36:08.486Z,99870.13
2018-04-23T03:38:35.961Z,99864.39
2018-04-23T03:41:03.429Z,99866.67
2018-04-23T03:43:30.902Z,99874.41
2018-04-23T03:45:58.357Z,99875.73
2018-04-23T03:48:25.838Z,99862.88
2018-04-23T03:50:53.306Z,99863.52
2018-04-23T03:53:20.793Z,99861.36
2018-04-23T03:55:48.253Z,99858.77
2018-04-23T03:58:15.744Z,99853.69
2018-04-23T04:00:43.206Z,99844.86
2018-04-23T04:03:10.676Z,99844.29
2018-04-23T04:05:38.146Z,99849.34
2018-04-23T04:08:05.639Z,99844.20
2018-04-23T04:10:33.103Z,99846.61
2018-04-23T04:13:12.518Z,99853.35
2018-04-23T04:15:51.725Z,99861.46
2018-04-23T04:18:39.813Z,99859.75
2018-04-23T04:21:07.273Z,99857.38
2018-04-23T04:23:34.748Z,99865.89
2018-04-23T04:26:02.219Z,99863.36
2018-04-23T04:28:29.702Z,99846.00
2018-04-23T04:30:58.021Z,99852.83
2018-04-23T04:33:25.496Z,99852.91
2018-04-23T04:35:52.974Z,99867.56
2018-04-23T04:38:20.500Z,99879.23
2018-04-23T04:40:47.933Z,99885.89
2018-04-23T04:43:15.393Z,99894.36
2018-04-23T04:45:42.877Z,99896.99
2018-04-23T04:48:10.338Z,99899.53
2018-04-23T04:50:37.813Z,99905.06
2018-04-23T04:53:05.281Z,99902.23
2018-04-23T04:55:32.767Z,99906.19
2018-04-23T04:58:00.234Z,99906.41
2018-04-23T05:00:27.717Z,99901.90
2018-04-23T05:02:55.169Z,99906.91
2018-04-23T05:05:22.661Z,99914.39
2018-04-23T05:07:50.136Z,99916.42
2018-04-23T05:10:17.618Z,99913.59
2018-04-23T05:12:45.149Z,99911.11
2018-04-23T05:15:12.636Z,99917.72
2018-04-23T05:17:40.099Z,99925.22
2018-04-23T05:20:07.581Z,99926.34
2018-04-23T05:22:35.036Z,99929.72
2018-04-23T05:25:02.529Z,99930.22
2018-04-23T05:27:29.995Z,99934.13
2018-04-23T05:29:57.481Z,99934.84
2018-04-23T05:32:24.959Z,99939.76
2018-04-23T05:34:52.438Z,99941.06
2018-04-23T05:37:19.898Z,99945.23
2018-04-23T05:39:47.380Z,99944.35
2018-04-23T05:42:14.836Z,99938.83
2018-04-23T05:44:42.313Z,99950.23
2018-04-23T05:47:09.765Z,99955.70
2018-04-23T05:49:37.266Z,99956.09
2018-04-23T05:52:04.729Z,99952.61
2018-04-23T05:54:32.181Z,99957.75
2018-04-23T05:56:59.659Z,99959.97
2018-04-23T05:59:27.109Z,99960.46
2018-04-23T06:01:54.594Z,99968.23
2018-04-23T06:04:22.054Z,99970.41
2018-04-23T06:06:49.537Z,99974.30
2018-04-23T06:09:17.004Z,99974.13
2018-04-23T06:11:44.478Z,99971.02
2018-04-23T06:14:11.954Z,99980.95
2018-04-23T06:16:39.438Z,99982.61
2018-04-23T06:19:06.902Z,99981.93
2018-04-23T06:21:34.379Z,99986.67
2018-04-23T06:24:01.847Z,99981.21
2018-04-23T06:26:29.324Z,99990.21
2018-04-23T06:28:56.787Z,99991.13
2018-04-23T06:31:24.273Z,99988.20
2018-04-23T06:33:51.740Z,99993.06
2018-04-23T06:36:19.221Z,99992.25
2018-04-23T06:38:46.673Z,99995.67
2018-04-23T06:41:14.150Z,99990.90
2018-04-23T06:43:41.619Z,100003.83
2018-04-23T06:49:14.030Z,100018.63
2018-04-23T06:51:41.518Z,100017.41
2018-04-23T06:54:09.046Z,100024.59
2018-04-23T06:56:36.529Z,100022.23
2018-04-23T06:59:03.992Z,100028.51
2018-04-23T07:01:31.478Z,100035.64
2018-04-23T07:03:58.942Z,100041.23
2018-04-23T07:06:26.429Z,100037.89
2018-04-23T07:08:53.893Z,100039.98
2018-04-23T07:11:21.376Z,100040.03
2018-04-23T07:13:48.837Z,100034.63
2018-04-23T07:16:16.317Z,100044.34
2018-04-23T07:18:43.773Z,100034.34
2018-04-23T07:21:11.252Z,100039.10
2018-04-23T07:23:38.721Z,100032.78
2018-04-23T07:26:06.206Z,100036.27
2018-04-23T07:28:33.674Z,100031.19
2018-04-23T07:31:01.161Z,100040.34
2018-04-23T07:33:28.621Z,100036.73
2018-04-23T07:35:56.081Z,100035.41
2018-04-23T07:38:23.577Z,100041.52
2018-04-23T07:40:51.048Z,100044.36
2018-04-23T07:43:18.530Z,100040.95
2018-04-23T07:45:45.989Z,100044.20
2018-04-23T07:48:13.466Z,100046.11
2018-04-23T07:50:40.929Z,100039.82
2018-04-23T07:53:08.420Z,100048.82
2018-04-23T07:55:35.888Z,100043.27
2018-04-23T07:58:03.369Z,100039.82
2018-04-23T08:00:30.829Z,100036.55
2018-04-23T08:02:58.322Z,100048.58
2018-04-23T08:05:25.781Z,100043.97
2018-04-23T08:07:53.269Z,100042.25
2018-04-23T08:10:20.743Z,100049.92
2018-04-23T08:12:48.241Z,100053.23
2018-04-23T08:15:15.707Z,100042.09
2018-04-23T08:17:43.192Z,100049.16
2018-04-23T08:20:10.678Z,100054.37
2018-04-23T08:22:38.211Z,100053.06
2018-04-23T08:25:05.673Z,100056.31
2018-04-23T08:27:33.161Z,100057.93
2018-04-23T08:30:00.631Z,100058.59
2018-04-23T08:32:28.114Z,100069.98
2018-04-23T08:34:55.581Z,100059.19
2018-04-23T08:37:23.061Z,100062.83
2018-04-23T08:39:50.535Z,100071.83
2018-04-23T08:42:18.025Z,100071.16
2018-04-23T08:44:45.495Z,100070.31
2018-04-23T08:47:12.978Z,100071.05
2018-04-23T08:49:40.456Z,100074.57
2018-04-23T08:52:07.942Z,100081.34
2018-04-23T08:54:35.409Z,100081.58
2018-04-23T08:57:02.878Z,100079.95
2018-04-23T08:59:30.367Z,100083.52
2018-04-23T09:01:57.830Z,100078.43
2018-04-23T09:04:25.313Z,100083.81
2018-04-23T09:06:52.785Z,100091.51
2018-04-23T09:09:20.280Z,100100.29
2018-04-23T09:11:47.795Z,100088.84
2018-04-23T09:14:15.258Z,100089.88
2018-04-23T09:16:42.721Z,100091.95
2018-04-23T09:19:10.209Z,100092.44
2018-04-23T09:21:37.678Z,100099.39
2018-04-23T09:24:05.163Z,100097.23
2018-04-23T09:26:32.643Z,100100.08
2018-04-23T09:29:00.132Z,100108.66
2018-04-23T09:31:27.603Z,100105.30
2018-04-23T09:33:55.094Z,100101.45
2018-04-23T09:36:22.592Z,100117.77
2018-04-23T09:38:50.084Z,100106.23
2018-04-23T09:41:17.648Z,100107.20
2018-04-23T09:43:45.125Z,100115.19
2018-04-23T09:46:12.597Z,100113.66
2018-04-23T09:48:40.085Z,100112.18
2018-04-23T09:51:07.557Z,100127.03
2018-04-23T09:53:35.044Z,100106.94
2018-04-23T09:56:02.522Z,100111.96
2018-04-23T09:58:30.022Z,100118.75
2018-04-23T10:00:57.496Z,100101.92
2018-04-23T10:03:25.712Z,100107.36
2018-04-23T10:05:53.181Z,100114.39
2018-04-23T10:08:20.711Z,100129.83
2018-04-23T10:10:48.210Z,100119.09
2018-04-23T10:13:15.706Z,100110.89
2018-04-23T10:15:43.182Z,100122.94
2018-04-23T10:18:10.685Z,100127.30
2018-04-23T10:20:38.149Z,100131.25
2018-04-23T10:23:05.615Z,100131.73
2018-04-23T10:25:33.112Z,100126.23
2018-04-23T10:28:00.581Z,100137.78
2018-04-23T10:30:28.073Z,100136.80
2018-04-23T10:32:55.549Z,100145.36
2018-04-23T10:35:23.033Z,100126.17
2018-04-23T10:37:53.737Z,100135.47
2018-04-23T10:40:21.221Z,100136.22
2018-04-23T10:42:48.715Z,100136.69
2018-04-23T10:45:16.203Z,100139.00
2018-04-23T10:47:43.679Z,100135.84
2018-04-23T10:50:11.169Z,100152.78
2018-04-23T10:52:38.628Z,100148.00
2018-04-23T10:55:06.126Z,100143.94
2018-04-23T10:57:33.593Z,100148.12
2018-04-23T11:00:01.087Z,100144.48
2018-04-23T11:02:28.558Z,100165.48
2018-04-23T11:04:56.076Z,100147.19
2018-04-23T11:07:23.549Z,100155.23
2018-04-23T11:09:51.045Z,100151.42
2018-04-23T11:12:18.515Z,100154.47
2018-04-23T11:14:45.997Z,100138.38
2018-04-23T11:17:13.461Z,100145.78
2018-04-23T11:19:40.965Z,100144.77
2018-04-23T11:22:08.433Z,100149.30
2018-04-23T11:24:35.958Z,100149.61
2018-04-23T11:27:03.423Z,100142.86
2018-04-23T11:29:30.914Z,100141.89
2018-04-23T11:31:58.374Z,100143.50
2018-04-23T11:34:25.853Z,100142.98
2018-04-23T11:36:53.310Z,100146.70
2018-04-23T11:39:20.803Z,100147.66
2018-04-23T11:41:48.266Z,100147.66
2018-04-23T11:44:15.729Z,100141.64
2018-04-23T11:46:43.218Z,100151.78
2018-04-23T11:49:11.610Z,100142.13
2018-04-23T11:51:39.093Z,100146.88
2018-04-23T11:54:06.553Z,100150.31
2018-04-23T11:56:34.033Z,100156.27
2018-04-23T11:59:01.497Z,100152.64
2018-04-23T12:01:28.978Z,100157.94
2018-04-23T12:03:56.446Z,100160.28
2018-04-23T12:06:23.938Z,100162.54
2018-04-23T12:08:51.402Z,100156.13
2018-04-23T12:11:24.857Z,100153.58
2018-04-23T12:13:52.329Z,100156.38
2018-04-23T12:16:19.805Z,100140.91
2018-04-23T12:18:47.266Z,100150.73
2018-04-23T12:21:14.743Z,100143.45
2018-04-23T12:23:42.202Z,100142.95
2018-04-23T12:26:09.685Z,100137.12
2018-04-23T12:28:37.151Z,100156.46
2018-04-23T12:31:04.633Z,100143.59
2018-04-23T12:33:32.118Z,100154.12
2018-04-23T12:35:59.606Z,100147.93
2018-04-23T12:38:27.066Z,100149.37
2018-04-23T12:40:54.546Z,100141.93
2018-04-23T12:43:23.023Z,100150.18
2018-04-23T12:45:50.503Z,100145.14
2018-04-23T12:48:17.965Z,100148.84
2018-04-23T12:50:45.454Z,100147.19
2018-04-23T12:53:12.922Z,100145.66
2018-04-23T12:55:40.408Z,100134.23
2018-04-23T12:58:07.874Z,100141.88
2018-04-23T13:00:35.356Z,100141.33
2018-04-23T13:03:02.842Z,100143.40
2018-04-23T13:05:30.329Z,100146.83
2018-04-23T13:07:57.785Z,100137.88
2018-04-23T13:10:25.286Z,100132.77
2018-04-23T13:12:52.757Z,100129.03
2018-04-23T13:15:20.214Z,100125.51
2018-04-23T13:17:47.698Z,100121.73
2018-04-23T13:20:15.190Z,100127.78
2018-04-23T13:22:43.262Z,100123.03
2018-04-23T13:25:10.723Z,100123.38
2018-04-23T13:27:38.202Z,100120.98
2018-04-23T13:30:05.658Z,100119.86
2018-04-23T13:32:33.138Z,100116.72
2018-04-23T13:35:00.598Z,100111.18
2018-04-23T13:37:28.078Z,100113.38
2018-04-23T13:39:55.537Z,100108.95
2018-04-23T13:42:23.067Z,100099.60
2018-04-23T13:44:50.489Z,100102.61
2018-04-23T13:47:17.966Z,100098.61
2018-04-23T13:49:45.430Z,100092.73
2018-04-23T13:52:12.909Z,100096.50
2018-04-23T13:54:40.366Z,100086.14
2018-04-23T13:57:07.848Z,100090.20
2018-04-23T13:59:35.309Z,100094.37
2018-04-23T14:02:02.793Z,100085.06
2018-04-23T14:04:30.270Z,100087.80
2018-04-23T14:06:57.773Z,100082.00
2018-04-23T14:09:25.287Z,100080.48
2018-04-23T14:11:52.758Z,100079.20
2018-04-23T14:14:20.218Z,100087.45
2018-04-23T14:16:47.698Z,100077.63
2018-04-23T14:19:15.168Z,100077.87
2018-04-23T14:21:42.651Z,100075.98
2018-04-23T14:24:10.119Z,100073.20
2018-04-23T14:26:37.642Z,100065.59
2018-04-23T14:29:05.099Z,100065.27
2018-04-23T14:31:33.157Z,100071.67
2018-04-23T14:34:00.615Z,100065.77
2018-04-23T14:36:28.069Z,100065.42
2018-04-23T14:38:55.549Z,100073.04
2018-04-23T14:41:23.012Z,100070.48
2018-04-23T14:43:50.499Z,100068.75
2018-04-23T14:46:18.457Z,100075.25
2018-04-23T14:48:45.931Z,100072.19
2018-04-23T14:51:13.390Z,100069.44
2018-04-23T14:53:40.869Z,100069.22
2018-04-23T14:56:08.353Z,100062.91
2018-04-23T14:58:35.834Z,100081.58
2018-04-23T15:01:03.305Z,100081.16
2018-04-23T15:03:30.784Z,100069.55
2018-04-23T15:05:58.246Z,100077.28
2018-04-23T15:08:25.779Z,100074.98
2018-04-23T15:10:53.203Z,100079.23
2018-04-23T15:13:20.690Z,100074.09
2018-04-23T15:15:48.149Z,100079.51
2018-04-23T15:18:15.631Z,100085.20
2018-04-23T15:20:43.101Z,100092.75
2018-04-23T15:23:11.537Z,100091.64
2018-04-23T15:25:39.070Z,100108.22
2018-04-23T15:28:06.663Z,100099.02
2018-04-23T15:30:35.161Z,100098.48
2018-04-23T15:33:02.735Z,100100.28
2018-04-23T15:35:30.590Z,100097.50
2018-04-23T15:37:58.113Z,100104.66
2018-04-23T15:40:25.619Z,100100.23
2018-04-23T15:42:53.159Z,100105.52
2018-04-23T15:45:20.683Z,100101.31
2018-04-23T15:47:48.276Z,100116.37
2018-04-23T15:50:15.895Z,100113.81
2018-04-23T15:52:43.563Z,100120.91
2018-04-23T15:55:11.123Z,100120.38
2018-04-23T15:57:38.719Z,100117.59
2018-04-23T16:00:06.514Z,100117.54
2018-04-23T16:02:34.087Z,100112.00
2018-04-23T16:05:02.184Z,100110.45
2018-04-23T16:07:29.751Z,100112.58
2018-04-23T16:09:57.356Z,100121.71
2018-04-23T16:12:24.875Z,100117.98
2018-04-23T16:14:52.385Z,100118.52
2018-04-23T16:17:19.887Z,100121.49
2018-04-23T16:19:47.405Z,100127.41
2018-04-23T16:22:14.941Z,100126.46
2018-04-23T16:24:42.485Z,100121.22
2018-04-23T16:27:10.014Z,100119.42
2018-04-23T16:29:37.905Z,100121.61
2018-04-23T16:32:06.321Z,100122.75
2018-04-23T16:34:33.928Z,100127.40
2018-04-23T16:37:10.019Z,100113.77
2018-04-23T16:39:37.563Z,100130.39
2018-04-23T16:42:05.106Z,100127.55
2018-04-23T16:44:32.739Z,100133.70
2018-04-23T16:47:00.282Z,100129.75
2018-04-23T16:49:27.843Z,100127.52
2018-04-23T16:51:55.416Z,100126.36
2018-04-23T16:54:23.905Z,100135.43
2018-04-23T16:56:55.987Z,100129.33
2018-04-23T16:59:23.699Z,100133.91
2018-04-23T17:01:51.291Z,100135.47
2018-04-23T17:04:18.798Z,100132.84
2018-04-23T17:06:46.319Z,100131.39
2018-04-23T17:09:13.910Z,100139.30
2018-04-23T17:11:41.435Z,100138.63
2018-04-23T17:14:08.941Z,100132.34
2018-04-23T17:16:36.449Z,100134.50
2018-04-23T17:19:04.654Z,100140.28
2018-04-23T17:21:32.306Z,100138.36
2018-04-23T17:24:00.313Z,100135.39
2018-04-23T17:26:27.835Z,100132.08
2018-04-23T17:28:55.775Z,100135.56
2018-04-23T17:31:23.302Z,100141.25
2018-04-23T17:33:50.864Z,100140.19
2018-04-23T17:36:18.437Z,100146.41
2018-04-23T17:38:46.415Z,100143.45
2018-04-23T17:41:13.988Z,100148.06
2018-04-23T17:43:42.314Z,100145.37
2018-04-23T17:46:10.047Z,100141.95
2018-04-23T17:48:37.610Z,100141.52
2018-04-23T17:51:05.181Z,100152.77
2018-04-23T17:53:32.756Z,100156.17
2018-04-23T17:56:00.299Z,100159.02
2018-04-23T17:58:27.892Z,100153.06
2018-04-23T18:00:55.484Z,100157.45
2018-04-23T18:03:23.030Z,100169.20
2018-04-23T18:05:51.472Z,100168.78
2018-04-23T18:08:19.007Z,100166.03
2018-04-23T18:10:46.580Z,100160.83
2018-04-23T18:13:14.114Z,100162.45
2018-04-23T18:15:41.678Z,100169.49
2018-04-23T18:18:09.235Z,100161.20
2018-04-23T18:20:36.774Z,100167.18
2018-04-23T18:23:04.292Z,100161.84
2018-04-23T18:25:32.648Z,100163.84
2018-04-23T18:28:00.445Z,100162.80
2018-04-23T18:30:28.021Z,100162.75
2018-04-23T18:32:55.530Z,100167.73
2018-04-23T18:35:23.220Z,100173.05
2018-04-23T18:37:50.738Z,100175.96
2018-04-23T18:40:18.782Z,100166.91
2018-04-23T18:42:46.331Z,100175.55
2018-04-23T18:45:13.944Z,100177.04
2018-04-23T18:47:58.944Z,100175.21
2018-04-23T18:50:26.530Z,100176.47
2018-04-23T18:52:54.086Z,100176.75
2018-04-23T18:55:21.661Z,100179.67
2018-04-23T18:57:50.044Z,100184.05
2018-04-23T19:00:17.600Z,100184.48
2018-04-23T19:02:45.115Z,100189.03
2018-04-23T19:05:12.735Z,100182.06
2018-04-23T19:07:40.280Z,100188.29
